sensor_id;sensor_type;location;lat;lon;timestamp;P1;durP1;ratioP1;P2;durP2;ratioP2
75437;SDS011;64015;49.392;15.582;2022-12-18T00:01:22;58.60;;;20.50;;
75437;SDS011;64015;49.392;15.582;2022-12-18T00:03:50;42.33;;;15.05;;
75437;SDS011;64015;49.392;15.582;2022-12-18T00:06:16;29.77;;;14.25;;
75437;SDS011;64015;49.392;15.582;2022-12-18T00:08:43;42.78;;;16.83;;
75437;SDS011;64015;49.392;15.582;2022-12-18T00:11:13;25.73;;;12.57;;
75437;SDS011;64015;49.392;15.582;2022-12-18T00:13:41;28.33;;;12.13;;
75437;SDS011;64015;49.392;15.582;2022-12-18T00:16:09;36.28;;;13.43;;
75437;SDS011;64015;49.392;15.582;2022-12-18T00:18:36;27.33;;;13.70;;
75437;SDS011;64015;49.392;15.582;2022-12-18T00:21:03;26.20;;;10.00;;
75437;SDS011;64015;49.392;15.582;2022-12-18T00:23:31;21.83;;;10.60;;
75437;SDS011;64015;49.392;15.582;2022-12-18T00:25:59;21.35;;;10.77;;
75437;SDS011;64015;49.392;15.582;2022-12-18T00:28:29;24.17;;;9.05;;
75437;SDS011;64015;49.392;15.582;2022-12-18T00:31:04;23.92;;;8.85;;
75437;SDS011;64015;49.392;15.582;2022-12-18T00:33:31;17.15;;;9.55;;
75437;SDS011;64015;49.392;15.582;2022-12-18T00:36:07;18.98;;;8.15;;
75437;SDS011;64015;49.392;15.582;2022-12-18T00:38:36;22.42;;;9.73;;
75437;SDS011;64015;49.392;15.582;2022-12-18T00:41:03;18.65;;;8.65;;
75437;SDS011;64015;49.392;15.582;2022-12-18T00:43:29;18.95;;;8.32;;
75437;SDS011;64015;49.392;15.582;2022-12-18T00:45:54;19.90;;;8.98;;
75437;SDS011;64015;49.392;15.582;2022-12-18T00:48:20;22.13;;;9.35;;
75437;SDS011;64015;49.392;15.582;2022-12-18T00:50:49;24.42;;;9.65;;
75437;SDS011;64015;49.392;15.582;2022-12-18T00:53:16;18.25;;;8.23;;
75437;SDS011;64015;49.392;15.582;2022-12-18T00:55:42;17.38;;;8.18;;
75437;SDS011;64015;49.392;15.582;2022-12-18T00:58:08;17.10;;;6.97;;
75437;SDS011;64015;49.392;15.582;2022-12-18T01:00:35;15.82;;;7.45;;
75437;SDS011;64015;49.392;15.582;2022-12-18T01:03:01;22.13;;;9.82;;
75437;SDS011;64015;49.392;15.582;2022-12-18T01:05:28;22.10;;;7.45;;
75437;SDS011;64015;49.392;15.582;2022-12-18T01:07:54;19.77;;;8.02;;
75437;SDS011;64015;49.392;15.582;2022-12-18T01:10:21;18.63;;;7.00;;
75437;SDS011;64015;49.392;15.582;2022-12-18T01:12:46;18.05;;;7.47;;
75437;SDS011;64015;49.392;15.582;2022-12-18T01:15:12;16.55;;;7.00;;
75437;SDS011;64015;49.392;15.582;2022-12-18T01:17:39;19.08;;;8.10;;
75437;SDS011;64015;49.392;15.582;2022-12-18T01:20:05;18.20;;;7.25;;
75437;SDS011;64015;49.392;15.582;2022-12-18T01:22:32;18.95;;;7.32;;
75437;SDS011;64015;49.392;15.582;2022-12-18T01:24:57;16.55;;;7.35;;
75437;SDS011;64015;49.392;15.582;2022-12-18T01:27:23;18.85;;;8.70;;
75437;SDS011;64015;49.392;15.582;2022-12-18T01:29:49;15.60;;;6.13;;
75437;SDS011;64015;49.392;15.582;2022-12-18T01:32:15;18.58;;;7.22;;
75437;SDS011;64015;49.392;15.582;2022-12-18T01:34:40;21.55;;;7.80;;
75437;SDS011;64015;49.392;15.582;2022-12-18T01:37:06;19.50;;;8.82;;
75437;SDS011;64015;49.392;15.582;2022-12-18T01:39:32;23.13;;;8.13;;
75437;SDS011;64015;49.392;15.582;2022-12-18T01:41:58;26.90;;;10.18;;
75437;SDS011;64015;49.392;15.582;2022-12-18T01:52:48;21.63;;;8.68;;
75437;SDS011;64015;49.392;15.582;2022-12-18T01:55:20;22.92;;;9.75;;
75437;SDS011;64015;49.392;15.582;2022-12-18T01:57:50;20.70;;;10.35;;
75437;SDS011;64015;49.392;15.582;2022-12-18T02:00:18;16.38;;;7.68;;
75437;SDS011;64015;49.392;15.582;2022-12-18T02:02:46;16.80;;;6.63;;
75437;SDS011;64015;49.392;15.582;2022-12-18T02:05:13;26.05;;;11.15;;
75437;SDS011;64015;49.392;15.582;2022-12-18T02:07:57;60.35;;;22.08;;
75437;SDS011;64015;49.392;15.582;2022-12-18T02:10:53;39.13;;;15.07;;
75437;SDS011;64015;49.392;15.582;2022-12-18T02:13:46;22.45;;;8.63;;
75437;SDS011;64015;49.392;15.582;2022-12-18T02:19:15;18.67;;;7.63;;
75437;SDS011;64015;49.392;15.582;2022-12-18T02:21:56;19.73;;;6.50;;
75437;SDS011;64015;49.392;15.582;2022-12-18T02:26:55;18.05;;;8.43;;
75437;SDS011;64015;49.392;15.582;2022-12-18T02:29:26;13.50;;;6.47;;
75437;SDS011;64015;49.392;15.582;2022-12-18T02:32:06;28.33;;;10.13;;
75437;SDS011;64015;49.392;15.582;2022-12-18T02:34:37;17.52;;;8.00;;
75437;SDS011;64015;49.392;15.582;2022-12-18T02:37:06;21.95;;;7.90;;
75437;SDS011;64015;49.392;15.582;2022-12-18T02:39:37;20.38;;;8.35;;
75437;SDS011;64015;49.392;15.582;2022-12-18T02:42:05;20.23;;;8.32;;
75437;SDS011;64015;49.392;15.582;2022-12-18T02:44:43;22.00;;;8.93;;
75437;SDS011;64015;49.392;15.582;2022-12-18T02:47:10;23.00;;;7.88;;
75437;SDS011;64015;49.392;15.582;2022-12-18T02:52:39;17.00;;;8.18;;
75437;SDS011;64015;49.392;15.582;2022-12-18T02:55:18;25.90;;;8.40;;
75437;SDS011;64015;49.392;15.582;2022-12-18T02:58:04;32.78;;;9.95;;
75437;SDS011;64015;49.392;15.582;2022-12-18T03:00:39;27.52;;;9.85;;
75437;SDS011;64015;49.392;15.582;2022-12-18T03:03:14;18.33;;;8.35;;
75437;SDS011;64015;49.392;15.582;2022-12-18T03:06:02;20.83;;;7.90;;
75437;SDS011;64015;49.392;15.582;2022-12-18T03:08:34;15.18;;;6.47;;
75437;SDS011;64015;49.392;15.582;2022-12-18T03:11:04;23.65;;;7.03;;
75437;SDS011;64015;49.392;15.582;2022-12-18T03:13:39;32.40;;;10.75;;
75437;SDS011;64015;49.392;15.582;2022-12-18T03:16:21;32.30;;;12.80;;
75437;SDS011;64015;49.392;15.582;2022-12-18T03:18:53;30.15;;;10.63;;
75437;SDS011;64015;49.392;15.582;2022-12-18T03:21:24;23.95;;;8.80;;
75437;SDS011;64015;49.392;15.582;2022-12-18T03:23:56;26.90;;;11.07;;
75437;SDS011;64015;49.392;15.582;2022-12-18T03:26:23;40.15;;;12.70;;
75437;SDS011;64015;49.392;15.582;2022-12-18T03:28:59;36.47;;;10.18;;
75437;SDS011;64015;49.392;15.582;2022-12-18T03:31:40;32.97;;;9.02;;
75437;SDS011;64015;49.392;15.582;2022-12-18T03:34:13;38.53;;;9.63;;
75437;SDS011;64015;49.392;15.582;2022-12-18T03:36:42;27.88;;;9.25;;
75437;SDS011;64015;49.392;15.582;2022-12-18T03:39:09;28.38;;;7.72;;
75437;SDS011;64015;49.392;15.582;2022-12-18T03:44:37;30.23;;;8.20;;
75437;SDS011;64015;49.392;15.582;2022-12-18T03:47:27;20.48;;;7.30;;
75437;SDS011;64015;49.392;15.582;2022-12-18T03:52:53;12.45;;;6.13;;
75437;SDS011;64015;49.392;15.582;2022-12-18T03:55:26;23.15;;;8.25;;
75437;SDS011;64015;49.392;15.582;2022-12-18T03:57:56;25.90;;;8.85;;
75437;SDS011;64015;49.392;15.582;2022-12-18T04:00:24;17.00;;;7.80;;
75437;SDS011;64015;49.392;15.582;2022-12-18T04:02:51;28.77;;;11.18;;
75437;SDS011;64015;49.392;15.582;2022-12-18T04:05:20;26.05;;;9.77;;
75437;SDS011;64015;49.392;15.582;2022-12-18T04:07:49;17.10;;;8.15;;
75437;SDS011;64015;49.392;15.582;2022-12-18T04:10:17;27.30;;;9.68;;
75437;SDS011;64015;49.392;15.582;2022-12-18T04:12:44;18.60;;;7.55;;
75437;SDS011;64015;49.392;15.582;2022-12-18T04:15:10;34.58;;;9.48;;
75437;SDS011;64015;49.392;15.582;2022-12-18T04:17:36;15.93;;;7.22;;
75437;SDS011;64015;49.392;15.582;2022-12-18T04:20:03;18.98;;;7.68;;
75437;SDS011;64015;49.392;15.582;2022-12-18T04:22:29;17.20;;;7.50;;
75437;SDS011;64015;49.392;15.582;2022-12-18T04:24:55;24.70;;;9.63;;
75437;SDS011;64015;49.392;15.582;2022-12-18T04:27:21;17.63;;;8.55;;
75437;SDS011;64015;49.392;15.582;2022-12-18T04:29:47;20.95;;;8.10;;
75437;SDS011;64015;49.392;15.582;2022-12-18T04:32:12;22.48;;;10.85;;
75437;SDS011;64015;49.392;15.582;2022-12-18T04:34:38;20.75;;;8.05;;
75437;SDS011;64015;49.392;15.582;2022-12-18T04:37:04;18.35;;;7.18;;
75437;SDS011;64015;49.392;15.582;2022-12-18T04:39:29;31.27;;;10.77;;
75437;SDS011;64015;49.392;15.582;2022-12-18T04:41:55;13.35;;;6.68;;
75437;SDS011;64015;49.392;15.582;2022-12-18T04:44:21;15.93;;;7.65;;
75437;SDS011;64015;49.392;15.582;2022-12-18T04:46:46;13.07;;;6.95;;
75437;SDS011;64015;49.392;15.582;2022-12-18T04:49:12;18.25;;;9.13;;
75437;SDS011;64015;49.392;15.582;2022-12-18T04:51:38;19.88;;;7.60;;
75437;SDS011;64015;49.392;15.582;2022-12-18T04:54:04;12.95;;;7.22;;
75437;SDS011;64015;49.392;15.582;2022-12-18T04:56:30;12.48;;;4.85;;
75437;SDS011;64015;49.392;15.582;2022-12-18T04:58:57;16.98;;;6.85;;
75437;SDS011;64015;49.392;15.582;2022-12-18T05:01:22;13.45;;;8.07;;
75437;SDS011;64015;49.392;15.582;2022-12-18T05:03:48;26.67;;;8.82;;
75437;SDS011;64015;49.392;15.582;2022-12-18T05:06:15;27.35;;;7.55;;
75437;SDS011;64015;49.392;15.582;2022-12-18T05:08:41;18.83;;;7.30;;
75437;SDS011;64015;49.392;15.582;2022-12-18T05:11:08;12.30;;;6.13;;
75437;SDS011;64015;49.392;15.582;2022-12-18T05:13:41;17.67;;;6.65;;
75437;SDS011;64015;49.392;15.582;2022-12-18T05:18:35;13.55;;;5.38;;
75437;SDS011;64015;49.392;15.582;2022-12-18T05:21:01;16.75;;;5.50;;
75437;SDS011;64015;49.392;15.582;2022-12-18T05:23:30;14.63;;;6.55;;
75437;SDS011;64015;49.392;15.582;2022-12-18T05:25:57;17.52;;;6.10;;
75437;SDS011;64015;49.392;15.582;2022-12-18T05:28:24;17.90;;;6.10;;
75437;SDS011;64015;49.392;15.582;2022-12-18T05:30:52;21.70;;;9.10;;
75437;SDS011;64015;49.392;15.582;2022-12-18T05:33:21;13.80;;;6.80;;
75437;SDS011;64015;49.392;15.582;2022-12-18T05:35:52;16.52;;;6.65;;
75437;SDS011;64015;49.392;15.582;2022-12-18T05:38:20;16.75;;;7.78;;
75437;SDS011;64015;49.392;15.582;2022-12-18T05:40:47;22.05;;;8.50;;
75437;SDS011;64015;49.392;15.582;2022-12-18T05:43:13;14.15;;;7.18;;
75437;SDS011;64015;49.392;15.582;2022-12-18T05:45:40;15.32;;;7.50;;
75437;SDS011;64015;49.392;15.582;2022-12-18T05:48:06;17.58;;;7.15;;
75437;SDS011;64015;49.392;15.582;2022-12-18T05:50:37;18.60;;;8.38;;
75437;SDS011;64015;49.392;15.582;2022-12-18T05:53:04;23.92;;;8.27;;
75437;SDS011;64015;49.392;15.582;2022-12-18T05:55:33;19.33;;;7.20;;
75437;SDS011;64015;49.392;15.582;2022-12-18T05:58:00;31.65;;;7.22;;
75437;SDS011;64015;49.392;15.582;2022-12-18T06:00:26;26.13;;;9.02;;
75437;SDS011;64015;49.392;15.582;2022-12-18T06:02:52;21.48;;;8.50;;
75437;SDS011;64015;49.392;15.582;2022-12-18T06:05:18;18.98;;;8.15;;
75437;SDS011;64015;49.392;15.582;2022-12-18T06:07:43;31.05;;;9.15;;
75437;SDS011;64015;49.392;15.582;2022-12-18T06:10:09;26.63;;;7.88;;
75437;SDS011;64015;49.392;15.582;2022-12-18T06:12:35;27.50;;;7.97;;
75437;SDS011;64015;49.392;15.582;2022-12-18T06:15:01;22.45;;;8.52;;
75437;SDS011;64015;49.392;15.582;2022-12-18T06:17:30;21.70;;;8.35;;
75437;SDS011;64015;49.392;15.582;2022-12-18T06:19:56;40.25;;;9.77;;
75437;SDS011;64015;49.392;15.582;2022-12-18T06:22:22;31.08;;;8.98;;
75437;SDS011;64015;49.392;15.582;2022-12-18T06:24:48;16.75;;;7.53;;
75437;SDS011;64015;49.392;15.582;2022-12-18T06:27:13;21.73;;;7.28;;
75437;SDS011;64015;49.392;15.582;2022-12-18T06:29:39;33.17;;;8.55;;
75437;SDS011;64015;49.392;15.582;2022-12-18T06:32:05;33.63;;;9.05;;
75437;SDS011;64015;49.392;15.582;2022-12-18T06:34:31;30.15;;;9.77;;
75437;SDS011;64015;49.392;15.582;2022-12-18T06:36:57;23.48;;;7.03;;
75437;SDS011;64015;49.392;15.582;2022-12-18T06:39:23;18.25;;;6.53;;
75437;SDS011;64015;49.392;15.582;2022-12-18T06:41:49;29.17;;;8.65;;
75437;SDS011;64015;49.392;15.582;2022-12-18T06:44:15;18.77;;;8.00;;
75437;SDS011;64015;49.392;15.582;2022-12-18T06:46:41;19.95;;;6.65;;
75437;SDS011;64015;49.392;15.582;2022-12-18T06:49:06;15.18;;;8.75;;
75437;SDS011;64015;49.392;15.582;2022-12-18T06:51:34;17.83;;;8.10;;
75437;SDS011;64015;49.392;15.582;2022-12-18T06:54:00;15.48;;;6.57;;
75437;SDS011;64015;49.392;15.582;2022-12-18T06:56:26;15.80;;;6.68;;
75437;SDS011;64015;49.392;15.582;2022-12-18T06:58:51;15.90;;;7.40;;
75437;SDS011;64015;49.392;15.582;2022-12-18T07:01:18;12.43;;;6.20;;
75437;SDS011;64015;49.392;15.582;2022-12-18T07:03:43;13.63;;;7.22;;
75437;SDS011;64015;49.392;15.582;2022-12-18T07:06:17;17.25;;;7.15;;
75437;SDS011;64015;49.392;15.582;2022-12-18T07:08:44;14.05;;;7.00;;
75437;SDS011;64015;49.392;15.582;2022-12-18T07:11:14;12.35;;;4.90;;
75437;SDS011;64015;49.392;15.582;2022-12-18T07:13:40;11.65;;;5.25;;
75437;SDS011;64015;49.392;15.582;2022-12-18T07:16:10;8.88;;;4.32;;
75437;SDS011;64015;49.392;15.582;2022-12-18T07:18:37;9.25;;;4.07;;
75437;SDS011;64015;49.392;15.582;2022-12-18T07:21:06;10.00;;;5.32;;
75437;SDS011;64015;49.392;15.582;2022-12-18T07:23:34;13.18;;;5.78;;
75437;SDS011;64015;49.392;15.582;2022-12-18T07:26:08;6.40;;;3.45;;
75437;SDS011;64015;49.392;15.582;2022-12-18T07:28:38;11.68;;;4.20;;
75437;SDS011;64015;49.392;15.582;2022-12-18T07:31:09;8.98;;;4.88;;
75437;SDS011;64015;49.392;15.582;2022-12-18T07:33:41;9.73;;;4.15;;
75437;SDS011;64015;49.392;15.582;2022-12-18T07:36:07;16.70;;;5.50;;
75437;SDS011;64015;49.392;15.582;2022-12-18T07:38:35;13.35;;;5.40;;
75437;SDS011;64015;49.392;15.582;2022-12-18T07:41:05;12.90;;;5.45;;
75437;SDS011;64015;49.392;15.582;2022-12-18T07:43:33;12.57;;;4.70;;
75437;SDS011;64015;49.392;15.582;2022-12-18T07:45:59;15.23;;;7.13;;
75437;SDS011;64015;49.392;15.582;2022-12-18T07:48:24;17.95;;;5.63;;
75437;SDS011;64015;49.392;15.582;2022-12-18T07:50:50;6.57;;;3.22;;
75437;SDS011;64015;49.392;15.582;2022-12-18T07:53:16;14.02;;;6.68;;
75437;SDS011;64015;49.392;15.582;2022-12-18T07:55:42;17.40;;;4.70;;
75437;SDS011;64015;49.392;15.582;2022-12-18T07:58:09;15.93;;;6.82;;
75437;SDS011;64015;49.392;15.582;2022-12-18T08:00:34;21.45;;;7.07;;
75437;SDS011;64015;49.392;15.582;2022-12-18T08:03:00;27.38;;;10.18;;
75437;SDS011;64015;49.392;15.582;2022-12-18T08:05:26;27.00;;;11.32;;
75437;SDS011;64015;49.392;15.582;2022-12-18T08:07:54;20.80;;;8.05;;
75437;SDS011;64015;49.392;15.582;2022-12-18T08:12:50;19.30;;;6.53;;
75437;SDS011;64015;49.392;15.582;2022-12-18T08:15:17;20.63;;;9.05;;
75437;SDS011;64015;49.392;15.582;2022-12-18T08:17:42;25.35;;;10.48;;
75437;SDS011;64015;49.392;15.582;2022-12-18T08:20:08;18.25;;;8.70;;
75437;SDS011;64015;49.392;15.582;2022-12-18T08:22:34;30.42;;;12.30;;
75437;SDS011;64015;49.392;15.582;2022-12-18T08:25:01;20.13;;;12.88;;
75437;SDS011;64015;49.392;15.582;2022-12-18T08:27:27;35.20;;;14.13;;
75437;SDS011;64015;49.392;15.582;2022-12-18T08:29:53;15.48;;;7.45;;
75437;SDS011;64015;49.392;15.582;2022-12-18T08:32:19;15.98;;;6.85;;
75437;SDS011;64015;49.392;15.582;2022-12-18T08:34:44;24.25;;;9.00;;
75437;SDS011;64015;49.392;15.582;2022-12-18T08:37:10;16.15;;;7.15;;
75437;SDS011;64015;49.392;15.582;2022-12-18T08:39:36;21.17;;;9.55;;
75437;SDS011;64015;49.392;15.582;2022-12-18T08:42:01;21.95;;;9.90;;
75437;SDS011;64015;49.392;15.582;2022-12-18T08:44:46;14.25;;;7.78;;
75437;SDS011;64015;49.392;15.582;2022-12-18T08:47:11;26.60;;;9.50;;
75437;SDS011;64015;49.392;15.582;2022-12-18T08:49:37;24.67;;;8.88;;
75437;SDS011;64015;49.392;15.582;2022-12-18T08:52:03;20.02;;;10.57;;
75437;SDS011;64015;49.392;15.582;2022-12-18T08:54:29;25.13;;;11.82;;
75437;SDS011;64015;49.392;15.582;2022-12-18T08:56:55;31.10;;;10.82;;
75437;SDS011;64015;49.392;15.582;2022-12-18T08:59:21;27.83;;;10.82;;
75437;SDS011;64015;49.392;15.582;2022-12-18T09:01:46;35.60;;;11.52;;
75437;SDS011;64015;49.392;15.582;2022-12-18T09:04:13;28.48;;;11.43;;
75437;SDS011;64015;49.392;15.582;2022-12-18T09:06:39;42.33;;;14.38;;
75437;SDS011;64015;49.392;15.582;2022-12-18T09:09:05;33.38;;;12.48;;
75437;SDS011;64015;49.392;15.582;2022-12-18T09:11:31;44.60;;;13.27;;
75437;SDS011;64015;49.392;15.582;2022-12-18T09:13:59;39.42;;;15.23;;
75437;SDS011;64015;49.392;15.582;2022-12-18T09:16:26;24.85;;;13.68;;
75437;SDS011;64015;49.392;15.582;2022-12-18T09:18:54;38.25;;;13.48;;
75437;SDS011;64015;49.392;15.582;2022-12-18T09:21:25;36.45;;;13.75;;
75437;SDS011;64015;49.392;15.582;2022-12-18T09:23:52;31.85;;;12.57;;
75437;SDS011;64015;49.392;15.582;2022-12-18T09:26:19;40.83;;;12.23;;
75437;SDS011;64015;49.392;15.582;2022-12-18T09:28:50;31.13;;;13.57;;
75437;SDS011;64015;49.392;15.582;2022-12-18T09:31:18;38.03;;;13.85;;
75437;SDS011;64015;49.392;15.582;2022-12-18T09:33:46;31.58;;;12.30;;
75437;SDS011;64015;49.392;15.582;2022-12-18T09:36:13;26.30;;;12.25;;
75437;SDS011;64015;49.392;15.582;2022-12-18T09:38:41;37.10;;;11.80;;
75437;SDS011;64015;49.392;15.582;2022-12-18T09:49:34;37.35;;;12.70;;
75437;SDS011;64015;49.392;15.582;2022-12-18T09:52:11;28.52;;;10.65;;
75437;SDS011;64015;49.392;15.582;2022-12-18T09:54:41;34.33;;;13.75;;
75437;SDS011;64015;49.392;15.582;2022-12-18T09:57:16;40.10;;;15.27;;
75437;SDS011;64015;49.392;15.582;2022-12-18T09:59:46;38.58;;;13.85;;
75437;SDS011;64015;49.392;15.582;2022-12-18T10:02:21;38.05;;;11.98;;
75437;SDS011;64015;49.392;15.582;2022-12-18T10:13:27;21.17;;;10.05;;
75437;SDS011;64015;49.392;15.582;2022-12-18T10:17:10;26.02;;;8.50;;
75437;SDS011;64015;49.392;15.582;2022-12-18T10:19:33;23.48;;;9.55;;
75437;SDS011;64015;49.392;15.582;2022-12-18T10:25:24;30.15;;;7.88;;
75437;SDS011;64015;49.392;15.582;2022-12-18T10:27:56;29.77;;;9.48;;
75437;SDS011;64015;49.392;15.582;2022-12-18T10:30:25;28.33;;;10.88;;
75437;SDS011;64015;49.392;15.582;2022-12-18T10:32:52;26.42;;;10.93;;
75437;SDS011;64015;49.392;15.582;2022-12-18T10:35:19;20.13;;;8.85;;
75437;SDS011;64015;49.392;15.582;2022-12-18T10:38:04;21.92;;;9.15;;
75437;SDS011;64015;49.392;15.582;2022-12-18T10:40:34;26.08;;;8.35;;
75437;SDS011;64015;49.392;15.582;2022-12-18T10:43:26;17.10;;;9.18;;
75437;SDS011;64015;49.392;15.582;2022-12-18T10:46:00;24.00;;;8.55;;
75437;SDS011;64015;49.392;15.582;2022-12-18T10:48:28;17.98;;;7.18;;
75437;SDS011;64015;49.392;15.582;2022-12-18T10:50:56;15.18;;;6.25;;
75437;SDS011;64015;49.392;15.582;2022-12-18T10:53:23;12.82;;;5.95;;
75437;SDS011;64015;49.392;15.582;2022-12-18T10:55:55;11.18;;;5.15;;
75437;SDS011;64015;49.392;15.582;2022-12-18T11:03:35;16.13;;;6.75;;
75437;SDS011;64015;49.392;15.582;2022-12-18T11:06:23;17.10;;;5.40;;
75437;SDS011;64015;49.392;15.582;2022-12-18T11:11:51;20.88;;;6.38;;
75437;SDS011;64015;49.392;15.582;2022-12-18T11:14:26;16.13;;;6.57;;
75437;SDS011;64015;49.392;15.582;2022-12-18T11:17:00;18.23;;;8.25;;
75437;SDS011;64015;49.392;15.582;2022-12-18T11:19:36;19.52;;;7.70;;
75437;SDS011;64015;49.392;15.582;2022-12-18T11:22:20;18.70;;;6.88;;
75437;SDS011;64015;49.392;15.582;2022-12-18T11:24:58;20.98;;;7.38;;
75437;SDS011;64015;49.392;15.582;2022-12-18T11:27:27;20.75;;;7.15;;
75437;SDS011;64015;49.392;15.582;2022-12-18T11:30:07;17.15;;;7.93;;
75437;SDS011;64015;49.392;15.582;2022-12-18T11:43:54;22.95;;;8.10;;
75437;SDS011;64015;49.392;15.582;2022-12-18T11:46:34;18.27;;;6.78;;
75437;SDS011;64015;49.392;15.582;2022-12-18T11:49:06;21.83;;;7.72;;
75437;SDS011;64015;49.392;15.582;2022-12-18T11:51:46;23.98;;;8.68;;
75437;SDS011;64015;49.392;15.582;2022-12-18T11:54:16;17.90;;;6.25;;
75437;SDS011;64015;49.392;15.582;2022-12-18T12:02:01;21.58;;;8.07;;
75437;SDS011;64015;49.392;15.582;2022-12-18T12:12:43;22.33;;;8.55;;
75437;SDS011;64015;49.392;15.582;2022-12-18T12:21:16;28.33;;;10.68;;
75437;SDS011;64015;49.392;15.582;2022-12-18T12:26:27;28.45;;;11.18;;
75437;SDS011;64015;49.392;15.582;2022-12-18T12:29:07;29.67;;;11.10;;
75437;SDS011;64015;49.392;15.582;2022-12-18T12:34:24;25.73;;;9.73;;
75437;SDS011;64015;49.392;15.582;2022-12-18T12:39:36;26.75;;;9.23;;
75437;SDS011;64015;49.392;15.582;2022-12-18T12:42:06;28.58;;;9.82;;
75437;SDS011;64015;49.392;15.582;2022-12-18T12:44:59;23.92;;;9.95;;
75437;SDS011;64015;49.392;15.582;2022-12-18T12:47:33;22.52;;;8.30;;
75437;SDS011;64015;49.392;15.582;2022-12-18T12:50:05;27.17;;;10.88;;
75437;SDS011;64015;49.392;15.582;2022-12-18T12:56:04;24.50;;;8.05;;
75437;SDS011;64015;49.392;15.582;2022-12-18T12:58:34;29.65;;;8.68;;
75437;SDS011;64015;49.392;15.582;2022-12-18T13:01:10;26.42;;;8.27;;
75437;SDS011;64015;49.392;15.582;2022-12-18T13:03:52;24.30;;;9.63;;
75437;SDS011;64015;49.392;15.582;2022-12-18T13:06:42;28.35;;;10.13;;
75437;SDS011;64015;49.392;15.582;2022-12-18T13:09:13;29.92;;;10.40;;
75437;SDS011;64015;49.392;15.582;2022-12-18T13:11:40;28.35;;;9.82;;
75437;SDS011;64015;49.392;15.582;2022-12-18T13:14:33;25.13;;;8.43;;
75437;SDS011;64015;49.392;15.582;2022-12-18T13:19:48;26.10;;;9.38;;
75437;SDS011;64015;49.392;15.582;2022-12-18T13:22:22;21.73;;;8.70;;
75437;SDS011;64015;49.392;15.582;2022-12-18T13:24:55;26.10;;;9.10;;
75437;SDS011;64015;49.392;15.582;2022-12-18T13:35:51;29.83;;;9.07;;
75437;SDS011;64015;49.392;15.582;2022-12-18T13:38:38;26.35;;;10.20;;
75437;SDS011;64015;49.392;15.582;2022-12-18T13:44:28;27.50;;;10.50;;
75437;SDS011;64015;49.392;15.582;2022-12-18T13:51:42;23.73;;;8.85;;
75437;SDS011;64015;49.392;15.582;2022-12-18T13:54:19;29.13;;;9.55;;
75437;SDS011;64015;49.392;15.582;2022-12-18T13:56:58;23.48;;;8.98;;
75437;SDS011;64015;49.392;15.582;2022-12-18T13:59:24;22.85;;;8.73;;
75437;SDS011;64015;49.392;15.582;2022-12-18T14:01:52;24.25;;;10.27;;
75437;SDS011;64015;49.392;15.582;2022-12-18T14:04:21;29.52;;;10.23;;
75437;SDS011;64015;49.392;15.582;2022-12-18T14:06:50;29.27;;;9.50;;
75437;SDS011;64015;49.392;15.582;2022-12-18T14:09:22;34.78;;;10.23;;
75437;SDS011;64015;49.392;15.582;2022-12-18T14:11:51;27.77;;;10.77;;
75437;SDS011;64015;49.392;15.582;2022-12-18T14:14:18;18.90;;;8.13;;
75437;SDS011;64015;49.392;15.582;2022-12-18T14:16:45;20.67;;;8.20;;
75437;SDS011;64015;49.392;15.582;2022-12-18T14:19:14;22.35;;;8.90;;
75437;SDS011;64015;49.392;15.582;2022-12-18T14:21:46;30.00;;;9.82;;
75437;SDS011;64015;49.392;15.582;2022-12-18T14:24:17;28.85;;;9.30;;
75437;SDS011;64015;49.392;15.582;2022-12-18T14:26:45;31.00;;;10.55;;
75437;SDS011;64015;49.392;15.582;2022-12-18T14:34:47;26.77;;;9.68;;
75437;SDS011;64015;49.392;15.582;2022-12-18T14:37:22;29.50;;;10.05;;
75437;SDS011;64015;49.392;15.582;2022-12-18T14:39:57;24.27;;;9.82;;
75437;SDS011;64015;49.392;15.582;2022-12-18T14:42:27;29.00;;;9.73;;
75437;SDS011;64015;49.392;15.582;2022-12-18T14:47:57;22.42;;;9.30;;
75437;SDS011;64015;49.392;15.582;2022-12-18T14:50:31;26.30;;;10.68;;
75437;SDS011;64015;49.392;15.582;2022-12-18T14:52:57;22.02;;;8.32;;
75437;SDS011;64015;49.392;15.582;2022-12-18T14:55:24;28.05;;;8.90;;
75437;SDS011;64015;49.392;15.582;2022-12-18T14:57:50;23.42;;;9.90;;
75437;SDS011;64015;49.392;15.582;2022-12-18T15:00:20;28.08;;;9.25;;
75437;SDS011;64015;49.392;15.582;2022-12-18T15:02:52;18.48;;;7.55;;
75437;SDS011;64015;49.392;15.582;2022-12-18T15:05:27;29.27;;;10.07;;
75437;SDS011;64015;49.392;15.582;2022-12-18T15:10:25;18.85;;;6.97;;
75437;SDS011;64015;49.392;15.582;2022-12-18T15:20:41;26.77;;;8.15;;
75437;SDS011;64015;49.392;15.582;2022-12-18T15:23:14;22.48;;;8.07;;
75437;SDS011;64015;49.392;15.582;2022-12-18T15:25:45;24.02;;;8.95;;
75437;SDS011;64015;49.392;15.582;2022-12-18T15:28:16;18.70;;;6.60;;
75437;SDS011;64015;49.392;15.582;2022-12-18T15:30:58;24.92;;;8.80;;
75437;SDS011;64015;49.392;15.582;2022-12-18T15:33:25;28.25;;;8.70;;
75437;SDS011;64015;49.392;15.582;2022-12-18T15:35:57;15.77;;;6.55;;
75437;SDS011;64015;49.392;15.582;2022-12-18T15:38:24;22.40;;;9.75;;
75437;SDS011;64015;49.392;15.582;2022-12-18T15:40:50;21.67;;;8.05;;
75437;SDS011;64015;49.392;15.582;2022-12-18T15:43:15;39.08;;;13.73;;
75437;SDS011;64015;49.392;15.582;2022-12-18T15:46:04;21.80;;;9.05;;
75437;SDS011;64015;49.392;15.582;2022-12-18T15:48:30;25.38;;;6.70;;
75437;SDS011;64015;49.392;15.582;2022-12-18T15:50:58;26.92;;;7.43;;
75437;SDS011;64015;49.392;15.582;2022-12-18T15:53:25;21.58;;;8.10;;
75437;SDS011;64015;49.392;15.582;2022-12-18T15:55:55;21.50;;;8.20;;
75437;SDS011;64015;49.392;15.582;2022-12-18T15:58:39;23.77;;;7.53;;
75437;SDS011;64015;49.392;15.582;2022-12-18T16:01:05;26.58;;;8.00;;
75437;SDS011;64015;49.392;15.582;2022-12-18T16:03:30;18.85;;;8.25;;
75437;SDS011;64015;49.392;15.582;2022-12-18T16:05:56;27.85;;;8.32;;
75437;SDS011;64015;49.392;15.582;2022-12-18T16:08:23;17.67;;;7.75;;
75437;SDS011;64015;49.392;15.582;2022-12-18T16:10:49;17.60;;;6.07;;
75437;SDS011;64015;49.392;15.582;2022-12-18T16:13:15;27.52;;;7.93;;
75437;SDS011;64015;49.392;15.582;2022-12-18T16:15:44;17.63;;;7.63;;
75437;SDS011;64015;49.392;15.582;2022-12-18T16:18:10;25.17;;;8.65;;
75437;SDS011;64015;49.392;15.582;2022-12-18T16:20:36;19.63;;;7.88;;
75437;SDS011;64015;49.392;15.582;2022-12-18T16:23:03;22.70;;;6.53;;
75437;SDS011;64015;49.392;15.582;2022-12-18T16:25:30;23.73;;;7.13;;
75437;SDS011;64015;49.392;15.582;2022-12-18T16:27:56;17.20;;;7.15;;
75437;SDS011;64015;49.392;15.582;2022-12-18T16:30:26;14.73;;;4.60;;
75437;SDS011;64015;49.392;15.582;2022-12-18T16:32:55;19.25;;;7.05;;
75437;SDS011;64015;49.392;15.582;2022-12-18T16:35:24;29.00;;;10.40;;
75437;SDS011;64015;49.392;15.582;2022-12-18T16:37:52;22.63;;;8.23;;
75437;SDS011;64015;49.392;15.582;2022-12-18T16:40:19;26.10;;;9.20;;
75437;SDS011;64015;49.392;15.582;2022-12-18T16:42:45;19.77;;;7.45;;
75437;SDS011;64015;49.392;15.582;2022-12-18T16:45:13;26.65;;;9.98;;
75437;SDS011;64015;49.392;15.582;2022-12-18T16:47:40;20.25;;;7.78;;
75437;SDS011;64015;49.392;15.582;2022-12-18T16:50:07;24.75;;;9.02;;